sensor_id;sensor_type;location;lat;lon;timestamp;P1;durP1;ratioP1;P2;durP2;ratioP2
47103;SDS011;32853;52.164;5.400;2024-02-04T00:01:51;9.05;;;3.80;;
47103;SDS011;32853;52.164;5.400;2024-02-04T00:04:17;6.20;;;3.63;;
47103;SDS011;32853;52.164;5.400;2024-02-04T00:06:42;11.77;;;3.25;;
47103;SDS011;32853;52.164;5.400;2024-02-04T00:09:08;7.72;;;2.90;;
47103;SDS011;32853;52.164;5.400;2024-02-04T00:11:33;3.90;;;1.42;;
47103;SDS011;32853;52.164;5.400;2024-02-04T00:13:59;9.57;;;1.48;;
47103;SDS011;32853;52.164;5.400;2024-02-04T00:16:25;5.13;;;1.27;;
47103;SDS011;32853;52.164;5.400;2024-02-04T00:18:50;2.90;;;0.93;;
47103;SDS011;32853;52.164;5.400;2024-02-04T00:21:15;7.32;;;2.38;;
47103;SDS011;32853;52.164;5.400;2024-02-04T00:23:41;11.18;;;1.70;;
47103;SDS011;32853;52.164;5.400;2024-02-04T00:26:08;6.68;;;1.83;;
47103;SDS011;32853;52.164;5.400;2024-02-04T00:28:34;5.28;;;1.98;;
47103;SDS011;32853;52.164;5.400;2024-02-04T00:30:59;6.57;;;2.03;;
47103;SDS011;32853;52.164;5.400;2024-02-04T00:33:25;8.95;;;1.70;;
47103;SDS011;32853;52.164;5.400;2024-02-04T00:35:50;8.43;;;2.30;;
47103;SDS011;32853;52.164;5.400;2024-02-04T00:38:16;6.63;;;1.98;;
47103;SDS011;32853;52.164;5.400;2024-02-04T00:40:41;9.07;;;2.10;;
47103;SDS011;32853;52.164;5.400;2024-02-04T00:43:07;6.32;;;2.42;;
47103;SDS011;32853;52.164;5.400;2024-02-04T00:45:32;10.23;;;2.45;;
47103;SDS011;32853;52.164;5.400;2024-02-04T00:47:57;4.93;;;2.65;;
47103;SDS011;32853;52.164;5.400;2024-02-04T00:50:23;12.60;;;3.42;;
47103;SDS011;32853;52.164;5.400;2024-02-04T00:52:48;13.65;;;3.05;;
47103;SDS011;32853;52.164;5.400;2024-02-04T00:55:13;9.57;;;3.63;;
47103;SDS011;32853;52.164;5.400;2024-02-04T00:57:39;12.77;;;4.32;;
47103;SDS011;32853;52.164;5.400;2024-02-04T01:00:04;17.63;;;4.90;;
47103;SDS011;32853;52.164;5.400;2024-02-04T01:02:30;18.45;;;5.40;;
47103;SDS011;32853;52.164;5.400;2024-02-04T01:04:55;14.93;;;5.35;;
47103;SDS011;32853;52.164;5.400;2024-02-04T01:07:21;23.83;;;6.25;;
47103;SDS011;32853;52.164;5.400;2024-02-04T01:09:47;13.98;;;5.53;;
47103;SDS011;32853;52.164;5.400;2024-02-04T01:12:14;10.95;;;3.83;;
47103;SDS011;32853;52.164;5.400;2024-02-04T01:14:39;16.20;;;5.43;;
47103;SDS011;32853;52.164;5.400;2024-02-04T01:17:05;20.40;;;5.13;;
47103;SDS011;32853;52.164;5.400;2024-02-04T01:19:30;19.42;;;5.35;;
47103;SDS011;32853;52.164;5.400;2024-02-04T01:21:55;21.95;;;6.25;;
47103;SDS011;32853;52.164;5.400;2024-02-04T01:24:23;20.00;;;7.40;;
47103;SDS011;32853;52.164;5.400;2024-02-04T01:26:48;17.67;;;5.65;;
47103;SDS011;32853;52.164;5.400;2024-02-04T01:29:14;15.57;;;5.38;;
47103;SDS011;32853;52.164;5.400;2024-02-04T01:31:39;19.42;;;6.55;;
47103;SDS011;32853;52.164;5.400;2024-02-04T01:34:04;33.83;;;6.75;;
47103;SDS011;32853;52.164;5.400;2024-02-04T01:36:30;21.17;;;6.43;;
47103;SDS011;32853;52.164;5.400;2024-02-04T01:38:55;17.67;;;5.30;;
47103;SDS011;32853;52.164;5.400;2024-02-04T01:41:24;20.23;;;6.35;;
47103;SDS011;32853;52.164;5.400;2024-02-04T01:43:52;21.25;;;6.10;;
47103;SDS011;32853;52.164;5.400;2024-02-04T01:46:18;12.88;;;4.35;;
47103;SDS011;32853;52.164;5.400;2024-02-04T01:48:44;16.35;;;4.03;;
47103;SDS011;32853;52.164;5.400;2024-02-04T01:51:10;11.10;;;4.38;;
47103;SDS011;32853;52.164;5.400;2024-02-04T01:53:37;11.95;;;3.70;;
47103;SDS011;32853;52.164;5.400;2024-02-04T01:56:07;20.75;;;4.85;;
47103;SDS011;32853;52.164;5.400;2024-02-04T01:58:35;15.38;;;4.20;;
47103;SDS011;32853;52.164;5.400;2024-02-04T02:01:01;12.15;;;3.83;;
47103;SDS011;32853;52.164;5.400;2024-02-04T02:03:27;8.77;;;3.63;;
47103;SDS011;32853;52.164;5.400;2024-02-04T02:05:54;10.45;;;2.42;;
47103;SDS011;32853;52.164;5.400;2024-02-04T02:08:28;6.80;;;2.33;;
47103;SDS011;32853;52.164;5.400;2024-02-04T02:11:02;7.65;;;1.55;;
47103;SDS011;32853;52.164;5.400;2024-02-04T02:13:32;12.23;;;3.20;;
47103;SDS011;32853;52.164;5.400;2024-02-04T02:16:02;14.48;;;2.80;;
47103;SDS011;32853;52.164;5.400;2024-02-04T02:18:52;13.95;;;3.28;;
47103;SDS011;32853;52.164;5.400;2024-02-04T02:21:25;8.05;;;2.38;;
47103;SDS011;32853;52.164;5.400;2024-02-04T02:26:40;10.38;;;2.97;;
47103;SDS011;32853;52.164;5.400;2024-02-04T02:29:06;10.63;;;3.05;;
47103;SDS011;32853;52.164;5.400;2024-02-04T02:31:33;12.40;;;3.67;;
47103;SDS011;32853;52.164;5.400;2024-02-04T02:34:00;8.98;;;3.55;;
47103;SDS011;32853;52.164;5.400;2024-02-04T02:36:26;5.93;;;2.97;;
47103;SDS011;32853;52.164;5.400;2024-02-04T02:38:59;10.10;;;3.53;;
47103;SDS011;32853;52.164;5.400;2024-02-04T02:41:35;14.57;;;2.85;;
47103;SDS011;32853;52.164;5.400;2024-02-04T02:44:02;11.50;;;3.55;;
47103;SDS011;32853;52.164;5.400;2024-02-04T02:46:30;7.00;;;2.75;;
47103;SDS011;32853;52.164;5.400;2024-02-04T02:48:58;9.00;;;3.47;;
47103;SDS011;32853;52.164;5.400;2024-02-04T02:51:23;12.70;;;3.60;;
47103;SDS011;32853;52.164;5.400;2024-02-04T02:53:49;10.88;;;2.83;;
47103;SDS011;32853;52.164;5.400;2024-02-04T02:56:14;17.58;;;4.03;;
47103;SDS011;32853;52.164;5.400;2024-02-04T02:58:39;9.52;;;2.40;;
47103;SDS011;32853;52.164;5.400;2024-02-04T03:01:05;15.55;;;3.22;;
47103;SDS011;32853;52.164;5.400;2024-02-04T03:03:33;9.90;;;2.67;;
47103;SDS011;32853;52.164;5.400;2024-02-04T03:05:59;7.53;;;2.30;;
47103;SDS011;32853;52.164;5.400;2024-02-04T03:08:24;17.55;;;3.90;;
47103;SDS011;32853;52.164;5.400;2024-02-04T03:10:50;9.45;;;3.05;;
47103;SDS011;32853;52.164;5.400;2024-02-04T03:13:15;13.35;;;3.13;;
47103;SDS011;32853;52.164;5.400;2024-02-04T03:15:40;12.73;;;4.68;;
47103;SDS011;32853;52.164;5.400;2024-02-04T03:18:10;8.75;;;4.13;;
47103;SDS011;32853;52.164;5.400;2024-02-04T03:20:38;22.02;;;5.10;;
47103;SDS011;32853;52.164;5.400;2024-02-04T03:23:07;14.77;;;5.20;;
47103;SDS011;32853;52.164;5.400;2024-02-04T03:25:40;13.60;;;5.30;;
47103;SDS011;32853;52.164;5.400;2024-02-04T03:28:06;19.73;;;5.05;;
47103;SDS011;32853;52.164;5.400;2024-02-04T03:30:32;20.58;;;5.22;;
47103;SDS011;32853;52.164;5.400;2024-02-04T03:33:00;13.10;;;5.18;;
47103;SDS011;32853;52.164;5.400;2024-02-04T03:35:30;12.38;;;3.70;;
47103;SDS011;32853;52.164;5.400;2024-02-04T03:37:56;6.35;;;3.00;;
47103;SDS011;32853;52.164;5.400;2024-02-04T03:40:27;12.98;;;2.80;;
47103;SDS011;32853;52.164;5.400;2024-02-04T03:42:57;9.77;;;2.63;;
47103;SDS011;32853;52.164;5.400;2024-02-04T03:45:26;11.73;;;3.47;;
47103;SDS011;32853;52.164;5.400;2024-02-04T03:47:51;8.38;;;2.72;;
47103;SDS011;32853;52.164;5.400;2024-02-04T03:50:17;13.73;;;2.50;;
47103;SDS011;32853;52.164;5.400;2024-02-04T03:52:42;9.13;;;2.70;;
47103;SDS011;32853;52.164;5.400;2024-02-04T03:55:08;8.75;;;1.80;;
47103;SDS011;32853;52.164;5.400;2024-02-04T03:57:34;15.40;;;2.05;;
47103;SDS011;32853;52.164;5.400;2024-02-04T03:59:59;4.95;;;1.70;;
47103;SDS011;32853;52.164;5.400;2024-02-04T04:02:25;4.78;;;1.50;;
47103;SDS011;32853;52.164;5.400;2024-02-04T04:04:51;7.78;;;1.60;;
47103;SDS011;32853;52.164;5.400;2024-02-04T04:07:16;9.57;;;1.77;;
47103;SDS011;32853;52.164;5.400;2024-02-04T04:09:54;3.83;;;0.98;;
47103;SDS011;32853;52.164;5.400;2024-02-04T04:12:19;2.63;;;1.00;;
47103;SDS011;32853;52.164;5.400;2024-02-04T04:14:45;7.63;;;1.45;;
47103;SDS011;32853;52.164;5.400;2024-02-04T04:17:10;9.00;;;1.60;;
47103;SDS011;32853;52.164;5.400;2024-02-04T04:19:35;10.07;;;1.30;;
47103;SDS011;32853;52.164;5.400;2024-02-04T04:22:04;12.07;;;1.67;;
47103;SDS011;32853;52.164;5.400;2024-02-04T04:24:32;10.70;;;1.55;;
47103;SDS011;32853;52.164;5.400;2024-02-04T04:26:58;4.78;;;1.58;;
47103;SDS011;32853;52.164;5.400;2024-02-04T04:29:23;9.63;;;2.33;;
47103;SDS011;32853;52.164;5.400;2024-02-04T04:31:49;10.43;;;2.58;;
47103;SDS011;32853;52.164;5.400;2024-02-04T04:34:15;9.93;;;1.90;;
47103;SDS011;32853;52.164;5.400;2024-02-04T04:36:43;12.13;;;2.47;;
47103;SDS011;32853;52.164;5.400;2024-02-04T04:39:08;8.02;;;3.22;;
47103;SDS011;32853;52.164;5.400;2024-02-04T04:41:34;14.30;;;2.05;;
47103;SDS011;32853;52.164;5.400;2024-02-04T04:44:00;14.95;;;2.78;;
47103;SDS011;32853;52.164;5.400;2024-02-04T04:46:26;5.15;;;1.83;;
47103;SDS011;32853;52.164;5.400;2024-02-04T04:48:51;16.38;;;3.65;;
47103;SDS011;32853;52.164;5.400;2024-02-04T04:51:17;18.02;;;2.47;;
47103;SDS011;32853;52.164;5.400;2024-02-04T04:53:43;8.80;;;1.98;;
47103;SDS011;32853;52.164;5.400;2024-02-04T04:56:08;5.43;;;1.85;;
47103;SDS011;32853;52.164;5.400;2024-02-04T04:58:35;10.02;;;2.17;;
47103;SDS011;32853;52.164;5.400;2024-02-04T05:01:00;14.05;;;2.47;;
47103;SDS011;32853;52.164;5.400;2024-02-04T05:03:27;4.88;;;1.50;;
47103;SDS011;32853;52.164;5.400;2024-02-04T05:05:52;14.15;;;2.10;;
47103;SDS011;32853;52.164;5.400;2024-02-04T05:08:17;15.93;;;1.80;;
47103;SDS011;32853;52.164;5.400;2024-02-04T05:10:43;4.20;;;1.73;;
47103;SDS011;32853;52.164;5.400;2024-02-04T05:13:08;10.63;;;1.63;;
47103;SDS011;32853;52.164;5.400;2024-02-04T05:15:35;5.72;;;0.88;;
47103;SDS011;32853;52.164;5.400;2024-02-04T05:18:00;7.65;;;1.58;;
47103;SDS011;32853;52.164;5.400;2024-02-04T05:20:26;7.43;;;2.25;;
47103;SDS011;32853;52.164;5.400;2024-02-04T05:22:51;4.07;;;1.67;;
47103;SDS011;32853;52.164;5.400;2024-02-04T05:25:20;11.23;;;2.30;;
47103;SDS011;32853;52.164;5.400;2024-02-04T05:27:46;12.55;;;1.55;;
47103;SDS011;32853;52.164;5.400;2024-02-04T05:30:11;12.02;;;1.65;;
47103;SDS011;32853;52.164;5.400;2024-02-04T05:32:37;13.68;;;2.70;;
47103;SDS011;32853;52.164;5.400;2024-02-04T05:35:03;10.50;;;1.77;;
47103;SDS011;32853;52.164;5.400;2024-02-04T05:37:28;6.13;;;1.80;;
47103;SDS011;32853;52.164;5.400;2024-02-04T05:39:54;11.52;;;2.97;;
47103;SDS011;32853;52.164;5.400;2024-02-04T05:42:19;12.10;;;2.20;;
47103;SDS011;32853;52.164;5.400;2024-02-04T05:44:44;9.32;;;2.15;;
47103;SDS011;32853;52.164;5.400;2024-02-04T05:47:10;16.05;;;2.28;;
47103;SDS011;32853;52.164;5.400;2024-02-04T05:49:35;7.60;;;2.15;;
47103;SDS011;32853;52.164;5.400;2024-02-04T05:52:01;16.27;;;2.78;;
47103;SDS011;32853;52.164;5.400;2024-02-04T05:54:26;9.90;;;2.38;;
47103;SDS011;32853;52.164;5.400;2024-02-04T05:56:51;11.30;;;2.67;;
47103;SDS011;32853;52.164;5.400;2024-02-04T05:59:17;10.00;;;2.15;;
47103;SDS011;32853;52.164;5.400;2024-02-04T06:01:42;8.60;;;3.35;;
47103;SDS011;32853;52.164;5.400;2024-02-04T06:04:08;9.55;;;2.55;;
47103;SDS011;32853;52.164;5.400;2024-02-04T06:06:33;15.95;;;3.00;;
47103;SDS011;32853;52.164;5.400;2024-02-04T06:09:00;7.72;;;2.78;;
47103;SDS011;32853;52.164;5.400;2024-02-04T06:11:25;13.43;;;2.20;;
47103;SDS011;32853;52.164;5.400;2024-02-04T06:13:51;6.70;;;1.95;;
47103;SDS011;32853;52.164;5.400;2024-02-04T06:16:16;7.10;;;2.45;;
47103;SDS011;32853;52.164;5.400;2024-02-04T06:18:42;9.57;;;1.77;;
47103;SDS011;32853;52.164;5.400;2024-02-04T06:21:07;7.95;;;2.75;;
47103;SDS011;32853;52.164;5.400;2024-02-04T06:23:33;17.60;;;2.28;;
47103;SDS011;32853;52.164;5.400;2024-02-04T06:25:59;8.73;;;2.25;;
47103;SDS011;32853;52.164;5.400;2024-02-04T06:28:25;7.15;;;2.55;;
47103;SDS011;32853;52.164;5.400;2024-02-04T06:30:50;9.25;;;2.78;;
47103;SDS011;32853;52.164;5.400;2024-02-04T06:33:16;10.45;;;2.47;;
47103;SDS011;32853;52.164;5.400;2024-02-04T06:35:41;14.38;;;4.07;;
47103;SDS011;32853;52.164;5.400;2024-02-04T06:38:07;9.60;;;3.70;;
47103;SDS011;32853;52.164;5.400;2024-02-04T06:40:32;11.50;;;3.55;;
47103;SDS011;32853;52.164;5.400;2024-02-04T06:42:57;15.20;;;3.42;;
47103;SDS011;32853;52.164;5.400;2024-02-04T06:45:23;11.80;;;4.20;;
47103;SDS011;32853;52.164;5.400;2024-02-04T06:47:48;14.80;;;4.90;;
47103;SDS011;32853;52.164;5.400;2024-02-04T06:50:14;13.93;;;4.47;;
47103;SDS011;32853;52.164;5.400;2024-02-04T06:52:39;9.07;;;4.15;;
47103;SDS011;32853;52.164;5.400;2024-02-04T06:55:05;8.35;;;4.35;;
47103;SDS011;32853;52.164;5.400;2024-02-04T06:57:31;11.95;;;4.20;;
47103;SDS011;32853;52.164;5.400;2024-02-04T06:59:59;13.85;;;4.47;;
47103;SDS011;32853;52.164;5.400;2024-02-04T07:02:25;5.88;;;3.95;;
47103;SDS011;32853;52.164;5.400;2024-02-04T07:04:50;19.60;;;4.72;;
47103;SDS011;32853;52.164;5.400;2024-02-04T07:07:15;9.45;;;5.05;;
47103;SDS011;32853;52.164;5.400;2024-02-04T07:09:41;13.73;;;5.07;;
47103;SDS011;32853;52.164;5.400;2024-02-04T07:12:06;12.00;;;5.35;;
47103;SDS011;32853;52.164;5.400;2024-02-04T07:14:32;19.45;;;7.63;;
47103;SDS011;32853;52.164;5.400;2024-02-04T07:16:57;11.40;;;5.32;;
47103;SDS011;32853;52.164;5.400;2024-02-04T07:19:22;20.08;;;6.53;;
47103;SDS011;32853;52.164;5.400;2024-02-04T07:21:50;8.65;;;5.22;;
47103;SDS011;32853;52.164;5.400;2024-02-04T07:24:19;14.98;;;5.00;;
47103;SDS011;32853;52.164;5.400;2024-02-04T07:26:46;18.33;;;5.55;;
47103;SDS011;32853;52.164;5.400;2024-02-04T07:29:15;17.80;;;5.28;;
47103;SDS011;32853;52.164;5.400;2024-02-04T07:31:43;14.40;;;4.13;;
47103;SDS011;32853;52.164;5.400;2024-02-04T07:34:09;10.25;;;3.53;;
47103;SDS011;32853;52.164;5.400;2024-02-04T07:39:18;7.15;;;4.32;;
47103;SDS011;32853;52.164;5.400;2024-02-04T07:41:47;14.07;;;5.30;;
47103;SDS011;32853;52.164;5.400;2024-02-04T07:46:41;6.30;;;4.50;;
47103;SDS011;32853;52.164;5.400;2024-02-04T07:49:07;18.50;;;5.80;;
47103;SDS011;32853;52.164;5.400;2024-02-04T07:51:36;14.13;;;4.97;;
47103;SDS011;32853;52.164;5.400;2024-02-04T07:54:02;12.80;;;4.90;;
47103;SDS011;32853;52.164;5.400;2024-02-04T07:56:32;10.40;;;5.07;;
47103;SDS011;32853;52.164;5.400;2024-02-04T07:59:03;14.87;;;3.60;;
47103;SDS011;32853;52.164;5.400;2024-02-04T08:01:34;13.85;;;5.05;;
47103;SDS011;32853;52.164;5.400;2024-02-04T08:04:02;12.77;;;4.70;;
47103;SDS011;32853;52.164;5.400;2024-02-04T08:06:33;14.85;;;3.70;;
47103;SDS011;32853;52.164;5.400;2024-02-04T08:09:11;5.93;;;3.50;;
47103;SDS011;32853;52.164;5.400;2024-02-04T08:11:41;7.80;;;3.60;;
47103;SDS011;32853;52.164;5.400;2024-02-04T08:14:08;5.47;;;2.17;;
47103;SDS011;32853;52.164;5.400;2024-02-04T08:16:36;4.32;;;2.10;;
47103;SDS011;32853;52.164;5.400;2024-02-04T08:19:03;5.25;;;2.47;;
47103;SDS011;32853;52.164;5.400;2024-02-04T08:21:31;6.25;;;1.58;;
47103;SDS011;32853;52.164;5.400;2024-02-04T08:23:57;7.40;;;2.03;;
47103;SDS011;32853;52.164;5.400;2024-02-04T08:26:26;4.93;;;1.65;;
47103;SDS011;32853;52.164;5.400;2024-02-04T08:28:52;6.63;;;1.73;;
47103;SDS011;32853;52.164;5.400;2024-02-04T08:31:19;2.08;;;1.23;;
47103;SDS011;32853;52.164;5.400;2024-02-04T08:33:47;6.47;;;1.55;;
47103;SDS011;32853;52.164;5.400;2024-02-04T08:36:13;3.63;;;1.50;;
47103;SDS011;32853;52.164;5.400;2024-02-04T08:38:38;7.32;;;1.58;;
47103;SDS011;32853;52.164;5.400;2024-02-04T08:41:04;3.28;;;0.93;;
47103;SDS011;32853;52.164;5.400;2024-02-04T08:43:32;6.78;;;1.30;;
47103;SDS011;32853;52.164;5.400;2024-02-04T08:45:58;7.60;;;1.75;;
47103;SDS011;32853;52.164;5.400;2024-02-04T08:48:23;6.72;;;1.52;;
47103;SDS011;32853;52.164;5.400;2024-02-04T08:50:52;7.15;;;1.48;;
47103;SDS011;32853;52.164;5.400;2024-02-04T08:53:20;6.32;;;3.47;;
47103;SDS011;32853;52.164;5.400;2024-02-04T08:55:46;11.70;;;2.45;;
47103;SDS011;32853;52.164;5.400;2024-02-04T08:58:12;3.70;;;2.08;;
47103;SDS011;32853;52.164;5.400;2024-02-04T09:00:38;5.82;;;2.30;;
47103;SDS011;32853;52.164;5.400;2024-02-04T09:03:09;6.95;;;1.80;;
47103;SDS011;32853;52.164;5.400;2024-02-04T09:05:37;7.60;;;2.05;;
47103;SDS011;32853;52.164;5.400;2024-02-04T09:08:03;3.90;;;1.52;;
47103;SDS011;32853;52.164;5.400;2024-02-04T09:10:28;7.20;;;1.80;;
47103;SDS011;32853;52.164;5.400;2024-02-04T09:13:00;5.82;;;2.15;;
47103;SDS011;32853;52.164;5.400;2024-02-04T09:15:26;8.15;;;1.92;;
47103;SDS011;32853;52.164;5.400;2024-02-04T09:18:03;5.22;;;1.33;;
47103;SDS011;32853;52.164;5.400;2024-02-04T09:20:31;5.60;;;2.53;;
47103;SDS011;32853;52.164;5.400;2024-02-04T09:22:56;12.65;;;2.40;;
47103;SDS011;32853;52.164;5.400;2024-02-04T09:25:32;9.50;;;1.60;;
47103;SDS011;32853;52.164;5.400;2024-02-04T09:28:07;5.60;;;1.73;;
47103;SDS011;32853;52.164;5.400;2024-02-04T09:30:41;4.07;;;1.15;;
47103;SDS011;32853;52.164;5.400;2024-02-04T09:33:34;3.03;;;1.65;;
47103;SDS011;32853;52.164;5.400;2024-02-04T09:36:06;3.75;;;1.58;;
47103;SDS011;32853;52.164;5.400;2024-02-04T09:38:32;5.38;;;1.20;;
47103;SDS011;32853;52.164;5.400;2024-02-04T09:40:57;7.20;;;1.50;;
47103;SDS011;32853;52.164;5.400;2024-02-04T09:48:28;3.70;;;0.90;;
47103;SDS011;32853;52.164;5.400;2024-02-04T09:50:56;4.70;;;0.93;;
47103;SDS011;32853;52.164;5.400;2024-02-04T09:53:36;9.93;;;2.10;;
47103;SDS011;32853;52.164;5.400;2024-02-04T09:56:19;2.03;;;1.00;;
47103;SDS011;32853;52.164;5.400;2024-02-04T09:58:49;8.40;;;2.15;;
47103;SDS011;32853;52.164;5.400;2024-02-04T10:01:19;7.63;;;1.20;;
47103;SDS011;32853;52.164;5.400;2024-02-04T10:03:57;4.38;;;0.80;;
47103;SDS011;32853;52.164;5.400;2024-02-04T10:06:24;3.10;;;1.20;;
47103;SDS011;32853;52.164;5.400;2024-02-04T10:08:50;2.67;;;1.20;;
47103;SDS011;32853;52.164;5.400;2024-02-04T10:11:16;3.97;;;0.90;;
47103;SDS011;32853;52.164;5.400;2024-02-04T10:13:48;3.13;;;0.70;;
47103;SDS011;32853;52.164;5.400;2024-02-04T10:16:22;2.00;;;0.47;;
47103;SDS011;32853;52.164;5.400;2024-02-04T10:18:47;8.10;;;0.70;;
47103;SDS011;32853;52.164;5.400;2024-02-04T10:21:23;7.22;;;0.60;;
47103;SDS011;32853;52.164;5.400;2024-02-04T10:23:50;2.25;;;0.68;;
47103;SDS011;32853;52.164;5.400;2024-02-04T10:26:19;4.30;;;0.63;;
47103;SDS011;32853;52.164;5.400;2024-02-04T10:28:45;2.40;;;0.73;;
47103;SDS011;32853;52.164;5.400;2024-02-04T10:31:17;5.53;;;1.70;;
47103;SDS011;32853;52.164;5.400;2024-02-04T10:33:46;4.97;;;0.38;;
47103;SDS011;32853;52.164;5.400;2024-02-04T10:36:30;6.20;;;1.00;;
47103;SDS011;32853;52.164;5.400;2024-02-04T10:38:56;0.65;;;0.30;;
47103;SDS011;32853;52.164;5.400;2024-02-04T10:41:25;1.52;;;0.50;;
47103;SDS011;32853;52.164;5.400;2024-02-04T10:46:19;5.22;;;0.85;;
47103;SDS011;32853;52.164;5.400;2024-02-04T10:49:03;4.45;;;1.42;;
47103;SDS011;32853;52.164;5.400;2024-02-04T10:54:18;5.43;;;0.40;;
47103;SDS011;32853;52.164;5.400;2024-02-04T10:56:51;0.50;;;0.20;;
47103;SDS011;32853;52.164;5.400;2024-02-04T10:59:21;0.93;;;0.40;;
47103;SDS011;32853;52.164;5.400;2024-02-04T11:02:10;2.60;;;0.60;;
47103;SDS011;32853;52.164;5.400;2024-02-04T11:04:39;1.33;;;0.37;;
47103;SDS011;32853;52.164;5.400;2024-02-04T11:07:11;0.95;;;0.43;;
47103;SDS011;32853;52.164;5.400;2024-02-04T11:09:44;3.03;;;0.55;;
47103;SDS011;32853;52.164;5.400;2024-02-04T11:12:18;1.50;;;0.30;;
47103;SDS011;32853;52.164;5.400;2024-02-04T11:15:13;2.58;;;0.40;;
47103;SDS011;32853;52.164;5.400;2024-02-04T11:26:15;0.75;;;0.40;;
47103;SDS011;32853;52.164;5.400;2024-02-04T11:28:44;3.22;;;0.43;;
47103;SDS011;32853;52.164;5.400;2024-02-04T11:31:19;3.47;;;0.82;;
47103;SDS011;32853;52.164;5.400;2024-02-04T11:33:50;1.88;;;0.43;;
47103;SDS011;32853;52.164;5.400;2024-02-04T11:36:16;3.17;;;0.40;;
47103;SDS011;32853;52.164;5.400;2024-02-04T11:38:43;1.17;;;0.60;;
47103;SDS011;32853;52.164;5.400;2024-02-04T11:41:20;4.00;;;0.80;;
47103;SDS011;32853;52.164;5.400;2024-02-04T11:43:51;1.60;;;0.60;;
47103;SDS011;32853;52.164;5.400;2024-02-04T11:46:18;6.10;;;0.70;;
47103;SDS011;32853;52.164;5.400;2024-02-04T11:48:50;5.53;;;1.08;;
47103;SDS011;32853;52.164;5.400;2024-02-04T11:51:18;4.45;;;1.25;;
47103;SDS011;32853;52.164;5.400;2024-02-04T11:53:43;6.47;;;1.10;;
47103;SDS011;32853;52.164;5.400;2024-02-04T11:56:09;6.93;;;1.00;;
47103;SDS011;32853;52.164;5.400;2024-02-04T11:58:44;4.05;;;1.27;;
47103;SDS011;32853;52.164;5.400;2024-02-04T12:01:10;3.40;;;1.05;;
47103;SDS011;32853;52.164;5.400;2024-02-04T12:03:40;5.68;;;1.02;;
47103;SDS011;32853;52.164;5.400;2024-02-04T12:06:05;5.35;;;1.10;;
47103;SDS011;32853;52.164;5.400;2024-02-04T12:08:34;5.57;;;1.67;;
47103;SDS011;32853;52.164;5.400;2024-02-04T12:11:00;2.20;;;0.85;;
47103;SDS011;32853;52.164;5.400;2024-02-04T12:13:27;13.80;;;2.75;;
47103;SDS011;32853;52.164;5.400;2024-02-04T12:15:53;9.70;;;1.98;;
47103;SDS011;32853;52.164;5.400;2024-02-04T12:18:19;7.55;;;1.08;;
47103;SDS011;32853;52.164;5.400;2024-02-04T12:20:46;3.22;;;1.33;;
47103;SDS011;32853;52.164;5.400;2024-02-04T12:23:13;7.05;;;1.35;;
47103;SDS011;32853;52.164;5.400;2024-02-04T12:25:39;4.93;;;0.85;;
47103;SDS011;32853;52.164;5.400;2024-02-04T12:28:07;5.70;;;0.80;;
47103;SDS011;32853;52.164;5.400;2024-02-04T12:30:33;4.00;;;1.30;;
47103;SDS011;32853;52.164;5.400;2024-02-04T12:32:59;2.00;;;0.80;;
47103;SDS011;32853;52.164;5.400;2024-02-04T12:35:26;7.53;;;0.80;;
47103;SDS011;32853;52.164;5.400;2024-02-04T12:37:53;9.40;;;1.50;;
47103;SDS011;32853;52.164;5.400;2024-02-04T12:40:28;5.30;;;0.85;;
47103;SDS011;32853;52.164;5.400;2024-02-04T12:42:55;0.93;;;0.38;;
47103;SDS011;32853;52.164;5.400;2024-02-04T12:45:27;4.75;;;1.05;;
47103;SDS011;32853;52.164;5.400;2024-02-04T12:47:55;4.75;;;0.77;;
47103;SDS011;32853;52.164;5.400;2024-02-04T12:50:21;5.80;;;0.75;;
47103;SDS011;32853;52.164;5.400;2024-02-04T12:52:48;2.30;;;0.70;;
47103;SDS011;32853;52.164;5.400;2024-02-04T12:55:25;7.97;;;1.00;;
47103;SDS011;32853;52.164;5.400;2024-02-04T13:00:33;13.35;;;1.45;;
47103;SDS011;32853;52.164;5.400;2024-02-04T13:02:59;6.45;;;1.23;;
47103;SDS011;32853;52.164;5.400;2024-02-04T13:05:25;4.18;;;0.82;;
47103;SDS011;32853;52.164;5.400;2024-02-04T13:10:24;7.80;;;0.85;;
47103;SDS011;32853;52.164;5.400;2024-02-04T13:15:26;3.17;;;1.15;;
47103;SDS011;32853;52.164;5.400;2024-02-04T13:17:54;8.93;;;1.10;;
47103;SDS011;32853;52.164;5.400;2024-02-04T13:20:20;3.63;;;0.88;;
47103;SDS011;32853;52.164;5.400;2024-02-04T13:22:48;9.52;;;0.90;;
47103;SDS011;32853;52.164;5.400;2024-02-04T13:25:13;3.80;;;1.10;;
47103;SDS011;32853;52.164;5.400;2024-02-04T13:27:39;3.40;;;1.20;;
47103;SDS011;32853;52.164;5.400;2024-02-04T13:32:44;4.72;;;0.65;;
47103;SDS011;32853;52.164;5.400;2024-02-04T13:35:11;2.50;;;0.77;;
47103;SDS011;32853;52.164;5.400;2024-02-04T13:37:41;3.20;;;0.47;;
47103;SDS011;32853;52.164;5.400;2024-02-04T13:40:13;1.58;;;0.85;;
47103;SDS011;32853;52.164;5.400;2024-02-04T13:42:43;6.22;;;0.70;;
47103;SDS011;32853;52.164;5.400;2024-02-04T13:47:42;5.05;;;0.75;;
47103;SDS011;32853;52.164;5.400;2024-02-04T13:50:08;3.13;;;0.98;;
47103;SDS011;32853;52.164;5.400;2024-02-04T13:52:35;2.95;;;0.80;;
47103;SDS011;32853;52.164;5.400;2024-02-04T13:55:01;1.60;;;0.50;;
47103;SDS011;32853;52.164;5.400;2024-02-04T13:57:27;1.95;;;0.60;;
47103;SDS011;32853;52.164;5.400;2024-02-04T13:59:55;3.60;;;0.98;;
47103;SDS011;32853;52.164;5.400;2024-02-04T14:02:20;4.45;;;0.85;;
47103;SDS011;32853;52.164;5.400;2024-02-04T14:04:45;3.17;;;0.70;;
47103;SDS011;32853;52.164;5.400;2024-02-04T14:07:11;2.67;;;0.95;;
47103;SDS011;32853;52.164;5.400;2024-02-04T14:09:37;1.33;;;0.60;;
47103;SDS011;32853;52.164;5.400;2024-02-04T14:12:02;7.43;;;1.15;;
47103;SDS011;32853;52.164;5.400;2024-02-04T14:14:29;6.40;;;1.00;;
47103;SDS011;32853;52.164;5.400;2024-02-04T14:16:54;12.23;;;1.25;;
47103;SDS011;32853;52.164;5.400;2024-02-04T14:19:20;10.43;;;1.70;;
47103;SDS011;32853;52.164;5.400;2024-02-04T14:21:45;4.63;;;1.10;;
47103;SDS011;32853;52.164;5.400;2024-02-04T14:24:11;7.47;;;1.30;;
47103;SDS011;32853;52.164;5.400;2024-02-04T14:26:36;12.75;;;1.60;;
47103;SDS011;32853;52.164;5.400;2024-02-04T14:29:04;5.18;;;1.30;;
47103;SDS011;32853;52.164;5.400;2024-02-04T14:31:29;6.70;;;1.30;;
47103;SDS011;32853;52.164;5.400;2024-02-04T14:33:55;5.88;;;1.85;;
47103;SDS011;32853;52.164;5.400;2024-02-04T14:36:21;6.47;;;1.48;;
47103;SDS011;32853;52.164;5.400;2024-02-04T14:38:49;9.38;;;1.90;;
47103;SDS011;32853;52.164;5.400;2024-02-04T14:41:19;7.10;;;1.35;;
47103;SDS011;32853;52.164;5.400;2024-02-04T14:43:44;8.48;;;1.73;;
47103;SDS011;32853;52.164;5.400;2024-02-04T14:46:11;7.22;;;1.42;;
47103;SDS011;32853;52.164;5.400;2024-02-04T14:48:36;10.32;;;2.50;;
47103;SDS011;32853;52.164;5.400;2024-02-04T14:51:02;6.90;;;1.33;;
47103;SDS011;32853;52.164;5.400;2024-02-04T14:53:28;5.88;;;1.55;;
47103;SDS011;32853;52.164;5.400;2024-02-04T14:55:54;12.93;;;2.03;;
47103;SDS011;32853;52.164;5.400;2024-02-04T14:58:21;7.03;;;1.42;;
47103;SDS011;32853;52.164;5.400;2024-02-04T15:00:47;10.73;;;1.30;;
47103;SDS011;32853;52.164;5.400;2024-02-04T15:03:13;4.47;;;1.23;;
47103;SDS011;32853;52.164;5.400;2024-02-04T15:05:41;9.20;;;1.63;;
47103;SDS011;32853;52.164;5.400;2024-02-04T15:08:06;3.63;;;1.20;;
47103;SDS011;32853;52.164;5.400;2024-02-04T15:10:33;6.13;;;2.15;;
47103;SDS011;32853;52.164;5.400;2024-02-04T15:12:58;8.10;;;1.40;;
47103;SDS011;32853;52.164;5.400;2024-02-04T15:15:24;6.30;;;1.23;;
47103;SDS011;32853;52.164;5.400;2024-02-04T15:17:52;7.43;;;2.13;;
47103;SDS011;32853;52.164;5.400;2024-02-04T15:20:18;7.35;;;1.50;;
47103;SDS011;32853;52.164;5.400;2024-02-04T15:22:46;8.35;;;1.35;;
47103;SDS011;32853;52.164;5.400;2024-02-04T15:25:12;7.70;;;1.42;;